createdAt,value
2022-08-20T00:00:34.582Z,8.57
2022-08-20T00:03:17.430Z,12.43
2022-08-20T00:05:52.868Z,7.68
2022-08-20T00:08:24.486Z,12.02
2022-08-20T00:10:55.647Z,14.73
2022-08-20T00:15:54.021Z,11.27
2022-08-20T00:18:22.611Z,12.40
2022-08-20T00:20:52.565Z,14.25
2022-08-20T00:23:20.532Z,11.98
2022-08-20T00:25:47.952Z,13.73
2022-08-20T00:28:15.861Z,14.35
2022-08-20T00:30:45.575Z,8.05
2022-08-20T00:33:17.223Z,12.48
2022-08-20T00:35:48.796Z,13.18
2022-08-20T00:38:16.541Z,10.85
2022-08-20T00:40:57.100Z,9.13
2022-08-20T00:43:39.009Z,9.80
2022-08-20T00:46:11.274Z,10.85
2022-08-20T00:48:41.488Z,11.55
2022-08-20T00:51:15.229Z,13.18
2022-08-20T00:53:43.424Z,10.82
2022-08-20T00:56:12.728Z,8.18
2022-08-20T00:58:42.389Z,10.45
2022-08-20T01:01:09.872Z,11.85
2022-08-20T01:03:37.269Z,10.82
2022-08-20T01:06:04.802Z,9.00
2022-08-20T01:08:32.422Z,10.85
2022-08-20T01:11:20.126Z,19.30
2022-08-20T01:13:48.582Z,10.68
2022-08-20T01:16:25.294Z,14.02
2022-08-20T01:18:57.753Z,13.93
2022-08-20T01:21:33.744Z,16.52
2022-08-20T01:24:12.590Z,17.40
2022-08-20T01:26:43.052Z,16.30
2022-08-20T01:29:17.846Z,12.98
2022-08-20T01:31:45.686Z,16.63
2022-08-20T01:34:16.117Z,18.92
2022-08-20T01:36:53.314Z,15.45
2022-08-20T01:39:28.048Z,15.27
2022-08-20T01:42:02.735Z,15.55
2022-08-20T01:44:31.606Z,15.43
2022-08-20T01:47:28.444Z,21.08
2022-08-20T01:50:00.007Z,17.30
2022-08-20T01:52:46.606Z,15.55
2022-08-20T01:55:14.236Z,19.83
2022-08-20T01:57:41.642Z,16.00
2022-08-20T02:00:19.097Z,20.13
2022-08-20T02:02:49.505Z,14.40
2022-08-20T02:05:17.235Z,16.80
2022-08-20T02:07:44.658Z,15.07
2022-08-20T02:10:15.433Z,20.88
2022-08-20T02:12:42.731Z,16.90
2022-08-20T02:15:11.089Z,21.67
2022-08-20T02:17:41.099Z,17.35
2022-08-20T02:20:17.501Z,19.70
2022-08-20T02:22:56.986Z,19.58
2022-08-20T02:25:28.223Z,17.58
2022-08-20T02:28:00.952Z,17.55
2022-08-20T02:30:33.491Z,18.58
2022-08-20T02:33:03.321Z,19.30
2022-08-20T02:35:32.456Z,19.40
2022-08-20T02:38:01.759Z,18.92
2022-08-20T02:40:31.436Z,17.45
2022-08-20T02:43:00.649Z,18.05
2022-08-20T02:45:31.609Z,16.77
2022-08-20T02:47:59.432Z,16.10
2022-08-20T02:50:27.181Z,18.92
2022-08-20T02:52:54.864Z,18.58
2022-08-20T02:55:27.321Z,16.60
2022-08-20T02:57:57.647Z,16.92
2022-08-20T03:00:27.339Z,19.75
2022-08-20T03:02:54.567Z,22.92
2022-08-20T03:05:22.447Z,21.88
2022-08-20T03:07:56.969Z,23.30
2022-08-20T03:10:27.046Z,21.52
2022-08-20T03:12:54.337Z,26.30
2022-08-20T03:15:21.934Z,26.65
2022-08-20T03:17:49.416Z,21.52
2022-08-20T03:20:16.918Z,22.77
2022-08-20T03:22:44.323Z,23.98
2022-08-20T03:25:12.507Z,26.80
2022-08-20T03:27:39.768Z,21.30
2022-08-20T03:30:10.222Z,21.70
2022-08-20T03:32:38.879Z,19.45
2022-08-20T03:35:09.317Z,20.63
2022-08-20T03:37:37.653Z,19.27
2022-08-20T03:40:16.410Z,17.60
2022-08-20T03:42:44.086Z,16.25
2022-08-20T03:45:14.283Z,15.88
2022-08-20T03:47:44.400Z,14.57
2022-08-20T03:50:22.655Z,16.88
2022-08-20T03:52:52.678Z,15.80
2022-08-20T03:55:21.614Z,18.17
2022-08-20T03:57:55.317Z,20.08
2022-08-20T04:00:39.674Z,17.77
2022-08-20T04:03:08.521Z,18.15
2022-08-20T04:05:40.729Z,21.60
2022-08-20T04:08:24.526Z,18.85
2022-08-20T04:10:52.365Z,20.38
2022-08-20T04:13:21.590Z,19.45
2022-08-20T04:15:55.261Z,21.50
2022-08-20T04:18:25.809Z,20.35
2022-08-20T04:20:54.121Z,18.48
2022-08-20T04:23:22.665Z,19.77
2022-08-20T04:25:50.176Z,21.13
2022-08-20T04:28:27.425Z,19.75
2022-08-20T04:30:57.131Z,18.25
2022-08-20T04:33:33.458Z,22.85
2022-08-20T04:36:02.881Z,20.92
2022-08-20T04:38:47.859Z,21.90
2022-08-20T04:41:22.872Z,20.90
2022-08-20T04:43:54.169Z,20.80
2022-08-20T04:46:26.047Z,21.40
2022-08-20T04:48:53.829Z,22.55
2022-08-20T04:51:23.397Z,24.15
2022-08-20T04:53:54.276Z,21.73
2022-08-20T04:56:28.455Z,19.98
2022-08-20T04:58:58.667Z,21.02
2022-08-20T05:01:26.694Z,22.40
2022-08-20T05:03:55.165Z,24.98
2022-08-20T05:06:25.978Z,28.38
2022-08-20T05:08:54.977Z,31.13
2022-08-20T05:11:35.524Z,24.90
2022-08-20T05:14:06.301Z,26.05
2022-08-20T05:16:40.673Z,28.35
2022-08-20T05:19:11.598Z,23.77
2022-08-20T05:21:39.553Z,22.83
2022-08-20T05:24:07.345Z,25.75
2022-08-20T05:26:35.448Z,23.00
2022-08-20T05:29:05.435Z,24.02
2022-08-20T05:31:33.851Z,22.45
2022-08-20T05:34:12.121Z,24.02
2022-08-20T05:36:49.238Z,24.63
2022-08-20T05:39:20.432Z,25.40
2022-08-20T05:41:49.948Z,32.85
2022-08-20T05:44:19.145Z,27.98
2022-08-20T05:46:47.864Z,27.10
2022-08-20T05:49:20.205Z,29.20
2022-08-20T05:51:49.521Z,30.33
2022-08-20T05:54:16.895Z,29.35
2022-08-20T05:56:44.115Z,27.33
2022-08-20T05:59:12.680Z,24.92
2022-08-20T06:01:41.110Z,26.48
2022-08-20T06:04:24.977Z,30.08
2022-08-20T06:07:02.917Z,28.52
2022-08-20T06:09:32.600Z,30.30
2022-08-20T06:12:06.198Z,31.67
2022-08-20T06:14:34.295Z,30.60
2022-08-20T06:17:08.980Z,26.98
2022-08-20T06:19:38.000Z,31.70
2022-08-20T06:22:08.715Z,30.77
2022-08-20T06:24:47.884Z,31.15
2022-08-20T06:27:16.691Z,31.67
2022-08-20T06:29:44.056Z,26.73
2022-08-20T06:32:11.544Z,26.42
2022-08-20T06:34:49.787Z,30.48
2022-08-20T06:37:23.393Z,30.80
2022-08-20T06:40:06.984Z,34.78
2022-08-20T06:42:34.631Z,25.83
2022-08-20T06:45:05.891Z,32.85
2022-08-20T06:47:34.359Z,29.52
2022-08-20T06:50:01.603Z,25.85
2022-08-20T06:52:52.658Z,27.25
2022-08-20T06:55:17.538Z,27.58
2022-08-20T06:57:46.475Z,29.55
2022-08-20T07:00:19.612Z,28.00
2022-08-20T07:02:48.154Z,29.48
2022-08-20T07:05:16.474Z,31.25
2022-08-20T07:07:51.188Z,31.05
2022-08-20T07:10:20.650Z,32.97
2022-08-20T07:12:50.655Z,35.05
2022-08-20T07:15:20.519Z,34.60
2022-08-20T07:17:55.527Z,35.13
2022-08-20T07:20:27.042Z,36.20
2022-08-20T07:22:54.546Z,31.77
2022-08-20T07:25:22.277Z,31.95
2022-08-20T07:27:50.694Z,30.23
2022-08-20T07:30:55.836Z,29.67
2022-08-20T07:33:28.986Z,28.08
2022-08-20T07:35:58.432Z,27.20
2022-08-20T07:38:27.562Z,28.73
2022-08-20T07:40:58.336Z,21.92
2022-08-20T07:43:26.001Z,26.27
2022-08-20T07:45:56.484Z,22.75
2022-08-20T07:48:31.976Z,22.42
2022-08-20T07:51:03.749Z,24.05
2022-08-20T07:53:36.453Z,21.25
2022-08-20T07:56:11.481Z,21.90
2022-08-20T07:58:44.943Z,22.17
2022-08-20T08:01:12.546Z,17.75
2022-08-20T08:03:49.200Z,19.58
2022-08-20T08:06:30.462Z,20.02
2022-08-20T08:09:07.036Z,17.33
2022-08-20T08:11:40.036Z,21.48
2022-08-20T08:14:09.927Z,14.30
2022-08-20T08:16:38.199Z,18.77
2022-08-20T08:19:09.250Z,17.77
2022-08-20T08:21:36.576Z,15.40
2022-08-20T08:24:04.519Z,20.25
2022-08-20T08:26:31.769Z,19.17
2022-08-20T08:28:59.103Z,15.50
2022-08-20T08:31:27.280Z,19.92
2022-08-20T08:33:55.654Z,14.45
2022-08-20T08:36:23.248Z,17.50
2022-08-20T08:38:51.076Z,19.40
2022-08-20T08:41:32.362Z,20.08
2022-08-20T08:44:11.271Z,14.90
2022-08-20T08:46:45.874Z,17.48
2022-08-20T08:49:18.415Z,20.27
2022-08-20T08:51:50.284Z,17.92
2022-08-20T08:54:22.142Z,17.30
2022-08-20T08:56:50.709Z,22.50
2022-08-20T08:59:20.184Z,20.75
2022-08-20T09:01:57.228Z,18.13
2022-08-20T09:04:36.300Z,15.02
2022-08-20T09:07:06.652Z,18.73
2022-08-20T09:09:38.091Z,18.17
2022-08-20T09:12:12.003Z,18.92
2022-08-20T09:14:39.766Z,16.60
2022-08-20T09:17:07.543Z,18.42
2022-08-20T09:19:34.867Z,19.23
2022-08-20T09:22:11.738Z,18.42
2022-08-20T09:24:39.786Z,15.77
2022-08-20T09:27:07.425Z,16.67
2022-08-20T09:29:35.100Z,14.98
2022-08-20T09:32:21.042Z,15.80
2022-08-20T09:34:55.923Z,16.02
2022-08-20T09:37:35.098Z,14.93
2022-08-20T09:40:07.945Z,10.18
2022-08-20T09:42:41.060Z,11.68
2022-08-20T09:45:11.048Z,13.48
2022-08-20T09:47:54.923Z,15.07
2022-08-20T09:50:29.917Z,17.25
2022-08-20T09:53:01.094Z,12.05
2022-08-20T09:55:35.177Z,11.57
2022-08-20T09:58:47.340Z,13.50
2022-08-20T10:01:17.178Z,13.18
2022-08-20T10:03:48.137Z,14.80
2022-08-20T10:06:17.937Z,11.48
2022-08-20T10:08:45.401Z,13.80
2022-08-20T10:11:13.075Z,13.43
2022-08-20T10:13:40.822Z,18.15
2022-08-20T10:16:08.045Z,14.50
2022-08-20T10:18:36.282Z,14.20
2022-08-20T10:21:09.167Z,12.95
2022-08-20T10:23:36.425Z,13.93
2022-08-20T10:26:04.445Z,12.00
2022-08-20T10:28:31.854Z,11.25
2022-08-20T10:30:59.019Z,15.35
2022-08-20T10:33:26.346Z,10.60
2022-08-20T10:35:59.737Z,13.10
2022-08-20T10:38:27.189Z,13.75
2022-08-20T10:40:55.189Z,13.95
2022-08-20T10:43:22.713Z,14.45
2022-08-20T10:45:51.198Z,11.68
2022-08-20T10:48:21.516Z,13.18
2022-08-20T10:50:50.297Z,11.25
2022-08-20T10:53:18.263Z,14.63
2022-08-20T10:55:45.916Z,12.48
2022-08-20T10:58:13.373Z,13.52
2022-08-20T11:00:41.282Z,10.73
2022-08-20T11:03:08.827Z,11.45
2022-08-20T11:05:36.063Z,12.38
2022-08-20T11:08:04.890Z,14.60
2022-08-20T11:10:35.167Z,14.60
2022-08-20T11:13:04.893Z,14.47
2022-08-20T11:15:35.708Z,16.23
2022-08-20T11:18:04.619Z,14.55
2022-08-20T11:20:32.208Z,14.10
2022-08-20T11:23:00.192Z,12.85
2022-08-20T11:25:29.571Z,13.57
2022-08-20T11:27:57.820Z,15.02
2022-08-20T11:30:31.072Z,16.90
2022-08-20T11:32:59.832Z,11.05
2022-08-20T11:35:49.523Z,18.02
2022-08-20T11:38:17.441Z,15.00
2022-08-20T11:40:46.896Z,15.75
2022-08-20T11:43:17.003Z,15.05
2022-08-20T11:45:56.386Z,14.75
2022-08-20T11:48:24.259Z,16.98
2022-08-20T11:50:51.873Z,14.48
2022-08-20T11:53:19.242Z,15.27
2022-08-20T11:55:47.892Z,16.48
2022-08-20T11:58:15.503Z,13.57
2022-08-20T12:00:42.848Z,14.25
2022-08-20T12:03:11.627Z,15.02
2022-08-20T12:05:41.689Z,11.30
2022-08-20T12:08:09.304Z,26.58
2022-08-20T12:10:37.441Z,17.35
2022-08-20T12:13:06.850Z,14.77
2022-08-20T12:15:37.621Z,17.73
2022-08-20T12:18:09.115Z,19.10
2022-08-20T12:20:37.891Z,20.73
2022-08-20T12:23:05.563Z,19.10
2022-08-20T12:25:33.714Z,19.15
2022-08-20T12:28:01.090Z,22.90
2022-08-20T12:30:28.503Z,43.55
2022-08-20T12:32:56.130Z,42.55
2022-08-20T12:35:24.058Z,25.63
2022-08-20T12:37:51.391Z,39.80
2022-08-20T12:40:32.377Z,32.30
2022-08-20T12:43:02.502Z,33.03
2022-08-20T12:45:30.489Z,31.10
2022-08-20T12:48:09.999Z,33.20
2022-08-20T12:50:39.605Z,31.45
2022-08-20T12:53:07.362Z,30.73
2022-08-20T12:55:34.747Z,28.15
2022-08-20T12:58:04.474Z,30.90
2022-08-20T13:00:35.149Z,25.15
2022-08-20T13:03:04.500Z,31.45
2022-08-20T13:05:33.100Z,26.70
2022-08-20T13:08:00.492Z,27.70
2022-08-20T13:10:33.396Z,31.42
2022-08-20T13:13:02.910Z,31.80
2022-08-20T13:15:32.042Z,28.35
2022-08-20T13:18:02.036Z,30.40
2022-08-20T13:20:33.962Z,31.23
2022-08-20T13:23:04.385Z,32.70
2022-08-20T13:25:33.139Z,35.47
2022-08-20T13:28:03.960Z,47.70
2022-08-20T13:30:33.816Z,38.38
2022-08-20T13:33:01.584Z,41.40
2022-08-20T13:35:29.291Z,36.55
2022-08-20T13:37:56.673Z,37.75
2022-08-20T13:40:24.197Z,44.10
2022-08-20T13:42:51.436Z,45.60
2022-08-20T13:45:18.827Z,38.30
2022-08-20T13:47:46.484Z,45.92
2022-08-20T13:50:18.418Z,37.88
2022-08-20T13:52:55.518Z,43.10
2022-08-20T13:55:25.939Z,38.50
2022-08-20T13:57:54.294Z,35.67
2022-08-20T14:00:31.766Z,37.85
2022-08-20T14:03:01.265Z,36.40
2022-08-20T14:05:29.475Z,36.83
2022-08-20T14:08:04.152Z,36.55
2022-08-20T14:10:33.073Z,39.35
2022-08-20T14:13:00.512Z,37.83
2022-08-20T14:15:27.772Z,28.52
2022-08-20T14:17:56.717Z,30.63
2022-08-20T14:20:29.273Z,29.25
2022-08-20T14:23:00.796Z,29.23
2022-08-20T14:25:28.587Z,29.60
2022-08-20T14:27:56.480Z,33.42
2022-08-20T14:30:27.866Z,36.47
2022-08-20T14:32:55.549Z,35.97
2022-08-20T14:35:23.230Z,33.25
2022-08-20T14:37:52.862Z,34.05
2022-08-20T14:40:21.905Z,39.88
2022-08-20T14:42:51.733Z,39.17
2022-08-20T14:45:20.909Z,38.90
2022-08-20T14:47:54.606Z,35.25
2022-08-20T14:50:26.548Z,40.13
2022-08-20T14:52:54.899Z,37.15
2022-08-20T14:55:25.130Z,38.00
2022-08-20T14:57:53.366Z,37.63
2022-08-20T15:00:27.740Z,32.60
2022-08-20T15:02:55.531Z,39.55
2022-08-20T15:05:23.790Z,36.28
2022-08-20T15:07:53.939Z,42.13
2022-08-20T15:10:32.002Z,32.63
2022-08-20T15:13:00.410Z,34.03
2022-08-20T15:15:28.440Z,32.78
2022-08-20T15:18:00.373Z,32.60
2022-08-20T15:20:31.227Z,31.00
2022-08-20T15:22:59.413Z,31.35
2022-08-20T15:25:36.950Z,32.15
2022-08-20T15:28:08.398Z,32.65
2022-08-20T15:30:38.053Z,27.15
2022-08-20T15:33:05.825Z,31.17
2022-08-20T15:35:33.282Z,29.30
2022-08-20T15:38:01.014Z,26.40
2022-08-20T15:40:32.133Z,24.02
2022-08-20T15:43:01.149Z,28.55
2022-08-20T15:45:29.242Z,27.30
2022-08-20T15:48:22.940Z,28.55
2022-08-20T15:50:53.530Z,28.73
2022-08-20T15:53:56.707Z,25.23
2022-08-20T15:56:23.866Z,25.77
2022-08-20T15:59:29.445Z,25.52
2022-08-20T16:02:34.072Z,26.33
2022-08-20T16:05:05.047Z,25.50
2022-08-20T16:08:06.598Z,23.50
2022-08-20T16:11:00.043Z,24.48
2022-08-20T16:13:41.432Z,26.42
2022-08-20T16:16:16.690Z,27.55
2022-08-20T16:18:48.004Z,26.50
2022-08-20T16:21:19.002Z,27.90
2022-08-20T16:23:46.359Z,27.75
2022-08-20T16:26:28.528Z,23.98
2022-08-20T16:29:19.058Z,26.23
2022-08-20T16:31:53.927Z,26.13
2022-08-20T16:34:55.300Z,26.25
2022-08-20T16:37:36.229Z,24.75
2022-08-20T16:40:19.534Z,25.90
2022-08-20T16:42:51.392Z,25.85
2022-08-20T16:45:29.591Z,26.05
2022-08-20T16:48:03.258Z,29.23
2022-08-20T16:50:45.658Z,27.45
2022-08-20T16:53:20.620Z,26.17
2022-08-20T16:55:49.149Z,27.45
2022-08-20T16:58:16.953Z,25.67
2022-08-20T17:00:45.530Z,27.05
2022-08-20T17:03:33.555Z,27.67
2022-08-20T17:06:26.817Z,26.75
2022-08-20T17:08:55.206Z,26.88
2022-08-20T17:11:32.719Z,29.67
2022-08-20T17:14:18.879Z,21.73
2022-08-20T17:16:49.543Z,24.63
2022-08-20T17:19:28.843Z,27.05
2022-08-20T17:22:07.321Z,24.48
2022-08-20T17:24:36.255Z,26.80
2022-08-20T17:27:10.550Z,26.13
2022-08-20T17:29:51.996Z,24.52
2022-08-20T17:32:26.056Z,23.30
2022-08-20T17:34:57.195Z,24.23
2022-08-20T17:37:40.657Z,25.08
2022-08-20T17:40:16.136Z,24.35
2022-08-20T17:43:10.106Z,26.52
2022-08-20T17:45:45.348Z,26.90
2022-08-20T17:48:15.965Z,29.38
2022-08-20T17:50:44.672Z,27.63
2022-08-20T17:53:29.673Z,29.23
2022-08-20T17:56:13.838Z,32.40
2022-08-20T17:58:54.350Z,30.50
2022-08-20T18:01:24.173Z,33.85
2022-08-20T18:03:53.341Z,34.33
2022-08-20T18:06:34.454Z,34.92
2022-08-20T18:12:00.767Z,34.58
2022-08-20T18:14:52.989Z,41.28
2022-08-20T18:17:47.582Z,38.75
2022-08-20T18:21:03.032Z,43.95
2022-08-20T18:23:36.632Z,41.85
2022-08-20T18:26:19.447Z,34.67
2022-08-20T18:28:52.466Z,37.53
2022-08-20T18:31:46.407Z,33.25
2022-08-20T18:34:43.479Z,33.30
2022-08-20T18:37:31.198Z,30.98
2022-08-20T18:40:15.565Z,38.75
2022-08-20T18:42:43.503Z,35.88
2022-08-20T18:45:10.907Z,31.10
2022-08-20T18:47:45.258Z,30.02
2022-08-20T18:50:18.347Z,32.20
2022-08-20T18:52:49.413Z,30.77
2022-08-20T18:55:31.198Z,30.35
2022-08-20T18:58:06.262Z,117.53
2022-08-20T19:00:40.148Z,29.08
2022-08-20T19:03:07.466Z,27.33
2022-08-20T19:06:03.181Z,30.30
2022-08-20T19:08:48.095Z,28.80
2022-08-20T19:11:47.954Z,28.60
2022-08-20T19:14:46.364Z,27.35
2022-08-20T19:17:25.530Z,24.35
2022-08-20T19:20:06.969Z,37.67
2022-08-20T19:22:35.619Z,28.40
2022-08-20T19:25:02.938Z,31.00
2022-08-20T19:27:30.696Z,27.52
2022-08-20T19:29:58.455Z,26.25
2022-08-20T19:32:29.551Z,26.90
2022-08-20T19:34:58.595Z,34.03
2022-08-20T19:37:39.947Z,28.88
2022-08-20T19:40:28.324Z,26.00
2022-08-20T19:42:59.702Z,29.45
2022-08-20T19:45:29.728Z,26.00
2022-08-20T19:48:30.544Z,28.17
2022-08-20T19:51:16.707Z,27.02
2022-08-20T19:53:48.817Z,28.98
2022-08-20T19:56:22.397Z,28.90
2022-08-20T19:59:06.061Z,26.73
2022-08-20T20:01:34.605Z,25.60
2022-08-20T20:04:05.337Z,27.83
2022-08-20T20:06:37.018Z,28.23
2022-08-20T20:09:13.607Z,29.33
2022-08-20T20:11:45.880Z,28.27
2022-08-20T20:14:17.636Z,26.95
2022-08-20T20:16:50.477Z,27.00
2022-08-20T20:19:28.108Z,27.55
2022-08-20T20:22:19.984Z,27.80
2022-08-20T20:25:17.310Z,27.98
2022-08-20T20:27:49.680Z,29.30
2022-08-20T20:30:27.108Z,25.58
2022-08-20T20:32:57.069Z,28.55
2022-08-20T20:35:34.347Z,26.00
2022-08-20T20:38:08.333Z,23.40
2022-08-20T20:40:50.952Z,26.67
2022-08-20T20:43:26.150Z,23.88
2022-08-20T20:46:06.502Z,25.13
2022-08-20T20:49:08.791Z,25.85
2022-08-20T20:51:40.130Z,24.27
2022-08-20T20:54:24.626Z,24.73
2022-08-20T20:57:02.020Z,25.40
2022-08-20T20:59:32.368Z,24.70
2022-08-20T21:02:00.247Z,25.90
2022-08-20T21:04:27.910Z,24.17
2022-08-20T21:06:58.617Z,24.30
2022-08-20T21:09:26.950Z,23.70
2022-08-20T21:11:54.177Z,28.10
2022-08-20T21:14:21.623Z,25.80
2022-08-20T21:16:49.081Z,26.08
2022-08-20T21:19:17.007Z,25.45
2022-08-20T21:21:44.318Z,25.52
2022-08-20T21:24:11.807Z,24.33
2022-08-20T21:26:39.797Z,24.70
2022-08-20T21:29:09.667Z,24.65
2022-08-20T21:31:43.568Z,24.60
2022-08-20T21:34:15.404Z,23.45
2022-08-20T21:36:43.690Z,26.30
2022-08-20T21:39:11.497Z,25.67
2022-08-20T21:41:42.768Z,23.73
2022-08-20T21:44:18.175Z,23.92
2022-08-20T21:46:50.312Z,23.13
2022-08-20T21:49:19.637Z,88.15
2022-08-20T21:51:48.060Z,75.50
2022-08-20T21:54:15.637Z,29.35
2022-08-20T21:56:49.606Z,30.88
2022-08-20T21:59:17.694Z,26.17
2022-08-20T22:01:45.192Z,23.60
2022-08-20T22:04:12.499Z,25.75
2022-08-20T22:06:39.864Z,21.10
2022-08-20T22:09:07.266Z,23.65
2022-08-20T22:11:35.259Z,22.40
2022-08-20T22:14:06.095Z,39.40
2022-08-20T22:16:33.541Z,25.05
2022-08-20T22:28:03.669Z,25.58
2022-08-20T22:30:31.632Z,24.15
2022-08-20T22:33:04.799Z,23.92
2022-08-20T22:35:34.038Z,20.80
2022-08-20T22:38:01.642Z,22.67
2022-08-20T22:40:28.941Z,24.33
2022-08-20T22:42:56.613Z,24.00
2022-08-20T22:45:24.241Z,22.13
2022-08-20T22:47:51.542Z,23.33
2022-08-20T22:50:22.812Z,23.42
2022-08-20T22:52:51.124Z,23.75
2022-08-20T22:55:18.911Z,23.98
2022-08-20T22:57:47.979Z,25.00
2022-08-20T23:00:17.608Z,28.92
2022-08-20T23:02:51.462Z,25.42
2022-08-20T23:05:21.862Z,23.67
2022-08-20T23:07:54.025Z,22.15
2022-08-20T23:10:23.743Z,27.17
2022-08-20T23:12:50.919Z,21.13
2022-08-20T23:15:19.043Z,22.38
2022-08-20T23:17:47.093Z,21.58
2022-08-20T23:20:18.511Z,22.58
2022-08-20T23:25:13.938Z,20.95
2022-08-20T23:27:45.471Z,22.95
2022-08-20T23:30:14.110Z,23.20
2022-08-20T23:32:41.779Z,26.85
2022-08-20T23:35:09.951Z,26.85
2022-08-20T23:59:09.325Z,18.27
